Time;durP1;ratioP1;P1;durP2;ratioP2;P2;SDS_P1;SDS_P2;PMS_P1;PMS_P2;Temp;Humidity;BMP_temperature;BMP_pressure;BME280_temperature;BME280_humidity;BME280_pressure;Samples;Min_cycle;Max_cycle;Signal;HPM_P1;HPM_P2
2020/12/07 00:01:43;;;;;;;17.17;9.83;;;;;;;8.68;74.82;94371.41;5035511;28;20176;-80
2020/12/07 00:04:09;;;;;;;16.07;8.77;;;;;;;8.71;75.00;94377.94;5033982;28;20169;-80
2020/12/07 00:06:34;;;;;;;13.10;8.37;;;;;;;8.79;74.94;94381.53;5034863;28;20583;-80
2020/12/07 00:09:00;;;;;;;14.23;8.57;;;;;;;8.78;75.45;94380.75;5033787;28;20268;-80
2020/12/07 00:11:25;;;;;;;14.90;8.67;;;;;;;8.82;75.28;94378.19;5034988;28;20196;-80
2020/12/07 00:13:51;;;;;;;16.27;8.53;;;;;;;8.80;74.88;94377.75;5035103;28;20180;-80
2020/12/07 00:16:16;;;;;;;14.97;9.00;;;;;;;8.68;76.14;94368.72;5035684;28;20655;-81
2020/12/07 00:18:43;;;;;;;18.67;8.57;;;;;;;8.61;75.83;94378.44;5017071;28;20192;-80
2020/12/07 00:21:08;;;;;;;13.53;7.33;;;;;;;8.66;75.96;94375.53;5033842;28;20583;-81
2020/12/07 00:23:34;;;;;;;15.07;8.33;;;;;;;8.60;76.40;94374.25;5035618;28;20685;-81
2020/12/07 00:26:00;;;;;;;13.73;7.70;;;;;;;8.54;76.67;94364.97;5036594;28;20295;-81
2020/12/07 00:28:25;;;;;;;13.30;7.53;;;;;;;8.55;76.42;94382.50;5034259;28;21187;-80
2020/12/07 00:30:51;;;;;;;11.83;7.60;;;;;;;8.43;76.61;94373.47;5034328;28;20228;-81
2020/12/07 00:33:16;;;;;;;13.00;7.77;;;;;;;8.61;76.38;94373.91;5034442;28;20624;-81
2020/12/07 00:35:42;;;;;;;11.30;6.90;;;;;;;8.67;76.20;94369.09;5034084;28;20215;-80
2020/12/07 00:38:07;;;;;;;10.43;6.70;;;;;;;8.53;76.26;94356.22;5034403;28;20199;-81
2020/12/07 00:40:33;;;;;;;16.67;7.80;;;;;;;8.55;76.22;94369.94;5017201;28;20180;-80
2020/12/07 00:42:58;;;;;;;11.30;6.43;;;;;;;8.49;76.39;94366.00;5034529;28;20196;-80
2020/12/07 00:45:24;;;;;;;11.27;6.77;;;;;;;8.50;76.61;94356.91;5034299;28;20218;-80
2020/12/07 00:47:49;;;;;;;11.57;6.53;;;;;;;8.47;76.66;94338.97;5033126;28;20616;-82
2020/12/07 00:50:15;;;;;;;10.80;6.50;;;;;;;8.60;76.24;94350.28;5033827;28;20469;-81
2020/12/07 00:52:41;;;;;;;13.37;8.03;;;;;;;8.42;76.42;94323.28;5034563;28;20247;-82
2020/12/07 00:55:06;;;;;;;13.90;7.83;;;;;;;8.58;76.34;94334.66;5032467;28;20212;-81
2020/12/07 00:57:32;;;;;;;12.33;7.73;;;;;;;8.48;76.63;94324.56;5034010;28;20546;-80
2020/12/07 00:59:57;;;;;;;15.03;7.47;;;;;;;8.61;76.60;94336.63;5034277;28;20176;-81
2020/12/07 01:02:23;;;;;;;12.30;7.07;;;;;;;8.56;76.14;94328.91;5033660;28;20220;-82
2020/12/07 01:04:48;;;;;;;14.40;7.93;;;;;;;8.51;76.51;94317.75;5033283;28;20176;-82
2020/12/07 01:07:14;;;;;;;13.37;7.77;;;;;;;8.58;76.73;94336.53;5031976;28;20184;-81
2020/12/07 01:09:39;;;;;;;13.97;7.77;;;;;;;8.66;76.40;94339.03;5049759;28;20184;-81
2020/12/07 01:12:05;;;;;;;14.10;7.53;;;;;;;8.49;77.06;94342.06;5016155;28;20230;-81
2020/12/07 01:14:30;;;;;;;14.13;7.73;;;;;;;8.43;76.94;94332.78;5033870;28;20174;-81
2020/12/07 01:16:58;;;;;;;11.13;7.30;;;;;;;8.50;76.60;94337.50;5033772;28;20647;-81
2020/12/07 01:19:24;;;;;;;14.20;7.83;;;;;;;8.41;77.22;94321.72;5033493;28;20713;-81
2020/12/07 01:21:49;;;;;;;15.20;8.40;;;;;;;8.45;76.85;94328.66;5033401;28;20682;-81
2020/12/07 01:24:15;;;;;;;16.57;7.47;;;;;;;8.53;76.58;94324.31;5033290;28;20219;-81
2020/12/07 01:26:40;;;;;;;13.83;7.90;;;;;;;8.60;76.19;94319.13;5033064;28;20251;-81
2020/12/07 01:29:06;;;;;;;14.43;7.77;;;;;;;8.62;75.84;94330.19;5031933;28;20640;-81
2020/12/07 01:31:32;;;;;;;11.30;6.97;;;;;;;8.62;76.08;94306.25;5033201;28;20216;-81
2020/12/07 01:33:57;;;;;;;12.50;6.60;;;;;;;8.58;75.43;94304.63;5033380;28;20196;-81
2020/12/07 01:36:23;;;;;;;8.87;6.10;;;;;;;8.58;75.71;94309.94;5033323;28;20260;-80
2020/12/07 01:38:49;;;;;;;11.67;7.03;;;;;;;8.67;75.17;94305.22;5032799;28;20172;-81
2020/12/07 01:41:14;;;;;;;11.43;6.47;;;;;;;8.67;74.59;94294.56;5033323;28;20263;-81
2020/12/07 01:43:40;;;;;;;11.23;6.03;;;;;;;8.61;75.62;94304.69;5031448;28;20188;-81
2020/12/07 01:46:06;;;;;;;12.37;6.90;;;;;;;8.55;75.29;94307.97;5033170;28;20177;-81
2020/12/07 01:48:32;;;;;;;8.50;6.00;;;;;;;8.59;75.49;94309.63;5033266;28;20594;-81
2020/12/07 01:50:57;;;;;;;9.07;5.93;;;;;;;8.58;74.76;94304.63;5033157;28;20626;-80
2020/12/07 01:53:23;;;;;;;10.83;5.93;;;;;;;8.68;74.38;94301.44;5032481;28;20270;-79
2020/12/07 01:55:49;;;;;;;8.37;5.50;;;;;;;8.66;74.29;94298.34;5030875;28;20184;-80
2020/12/07 01:58:14;;;;;;;7.73;5.67;;;;;;;8.71;73.74;94303.41;5032814;28;20528;-81
2020/12/07 02:00:41;;;;;;;7.60;5.10;;;;;;;8.64;73.86;94274.75;5032573;28;20238;-79
2020/12/07 02:03:08;;;;;;;8.17;5.17;;;;;;;8.69;73.89;94279.00;5032844;28;20598;-79
2020/12/07 02:05:33;;;;;;;8.93;5.80;;;;;;;8.49;73.81;94272.88;5033135;28;20677;-78
2020/12/07 02:08:18;;;;;;;7.37;5.10;;;;;;;8.57;73.91;94279.13;5015287;28;20618;-79
2020/12/07 02:10:44;;;;;;;7.23;4.67;;;;;;;8.52;74.23;94263.44;5030965;28;20258;-79
2020/12/07 02:13:10;;;;;;;10.13;5.33;;;;;;;8.43;74.90;94268.94;5031865;28;21035;-79
2020/12/07 02:15:36;;;;;;;9.37;5.93;;;;;;;8.33;75.45;94272.09;5031457;28;20611;-80
2020/12/07 02:18:02;;;;;;;11.07;6.57;;;;;;;8.23;76.21;94282.13;5015293;28;20179;-80
2020/12/07 02:20:28;;;;;;;10.93;6.30;;;;;;;8.07;76.33;94267.31;5031519;28;20595;-79
2020/12/07 02:22:53;;;;;;;9.07;5.83;;;;;;;8.11;76.81;94292.09;5032269;28;20208;-79
2020/12/07 02:25:19;;;;;;;9.57;6.27;;;;;;;8.25;76.38;94299.63;5032016;28;20184;-79
2020/12/07 02:27:49;;;;;;;10.03;6.53;;;;;;;8.11;76.81;94297.41;5034422;28;20216;-80
2020/12/07 02:30:18;;;;;;;9.23;5.97;;;;;;;8.17;76.75;94291.50;5035679;28;20632;-80
2020/12/07 02:32:44;;;;;;;11.23;7.33;;;;;;;8.28;76.30;94301.63;5039708;28;20942;-79
2020/12/07 02:35:10;;;;;;;10.80;6.33;;;;;;;8.31;75.87;94292.97;5034533;28;20641;-79
2020/12/07 02:37:36;;;;;;;9.30;5.40;;;;;;;8.29;75.68;94289.84;5032032;28;20643;-79
2020/12/07 02:40:05;;;;;;;11.83;6.70;;;;;;;8.36;76.29;94276.75;5033027;28;20181;-79
2020/12/07 02:42:37;;;;;;;10.60;6.57;;;;;;;8.38;76.30;94282.50;5033428;28;20180;-79
2020/12/07 02:45:07;;;;;;;10.87;6.27;;;;;;;8.37;75.81;94273.75;5031449;28;20598;-79
2020/12/07 02:47:33;;;;;;;12.60;6.73;;;;;;;8.29;76.47;94287.19;5031826;28;20583;-79
2020/12/07 02:49:58;;;;;;;10.00;5.87;;;;;;;8.35;76.32;94275.94;5030038;28;20635;-80
2020/12/07 02:52:24;;;;;;;11.33;5.93;;;;;;;8.28;75.89;94265.16;5031736;28;20571;-79
2020/12/07 02:54:54;;;;;;;14.07;7.03;;;;;;;8.31;76.68;94282.31;5014612;28;20230;-79
2020/12/07 02:57:20;;;;;;;10.13;5.80;;;;;;;8.19;76.62;94270.66;5014808;28;20598;-80
2020/12/07 02:59:46;;;;;;;12.37;6.43;;;;;;;8.31;76.77;94283.09;5015349;28;20591;-79
2020/12/07 03:02:11;;;;;;;10.73;7.07;;;;;;;8.39;76.33;94289.38;5032933;28;20583;-78
2020/12/07 03:04:37;;;;;;;13.17;6.37;;;;;;;8.32;76.85;94294.50;5031682;28;20254;-78
2020/12/07 03:07:03;;;;;;;11.77;6.80;;;;;;;8.35;76.72;94307.09;5032221;28;20594;-77
2020/12/07 03:09:28;;;;;;;10.13;6.70;;;;;;;8.47;75.98;94315.00;5032334;28;20176;-79
2020/12/07 03:11:54;;;;;;;10.07;6.50;;;;;;;8.13;77.45;94303.16;5032032;28;20235;-77
2020/12/07 03:14:19;;;;;;;11.93;6.73;;;;;;;8.17;77.25;94294.16;5032693;28;20655;-78
2020/12/07 03:16:45;;;;;;;10.27;6.20;;;;;;;8.25;77.12;94281.00;5033555;28;20179;-78
2020/12/07 03:19:11;;;;;;;10.90;6.83;;;;;;;8.33;76.53;94288.06;5030994;28;20239;-79
2020/12/07 03:21:37;;;;;;;11.53;7.50;;;;;;;8.23;77.35;94276.03;5031501;28;20271;-77
2020/12/07 03:24:05;;;;;;;13.47;6.97;;;;;;;8.32;76.72;94281.19;5016980;28;68260;-78
2020/12/07 03:26:34;;;;;;;12.23;6.00;;;;;;;8.23;76.88;94300.75;5013147;28;20632;-78
2020/12/07 03:29:02;;;;;;;11.67;6.47;;;;;;;8.11;77.12;94300.84;5012504;28;20945;-78
2020/12/07 03:31:28;;;;;;;9.70;6.50;;;;;;;8.15;77.40;94300.94;5014467;28;21078;-78
2020/12/07 03:33:53;;;;;;;11.13;6.40;;;;;;;8.01;77.71;94282.75;5016203;28;20627;-78
2020/12/07 03:36:19;;;;;;;12.30;6.87;;;;;;;8.14;77.33;94284.22;5015207;28;20165;-78
2020/12/07 03:38:44;;;;;;;11.67;6.40;;;;;;;8.20;76.53;94298.03;5015742;28;20209;-78
2020/12/07 03:41:10;;;;;;;12.23;6.83;;;;;;;8.39;76.15;94302.66;5015639;28;20204;-78
2020/12/07 03:43:35;;;;;;;9.10;6.33;;;;;;;8.38;76.40;94303.78;5015733;28;20192;-78
2020/12/07 03:46:01;;;;;;;11.33;6.33;;;;;;;8.27;76.03;94300.84;5015815;28;20674;-77
2020/12/07 03:48:26;;;;;;;8.80;5.97;;;;;;;8.25;76.21;94284.47;5015814;28;20169;-77
2020/12/07 03:50:52;;;;;;;11.20;6.70;;;;;;;8.37;76.20;94286.28;5015521;28;20196;-78
2020/12/07 03:53:17;;;;;;;11.77;6.00;;;;;;;8.44;75.82;94289.88;5015425;28;20232;-80
2020/12/07 03:55:43;;;;;;;10.40;6.23;;;;;;;8.44;75.67;94291.78;5016571;28;20200;-79
2020/12/07 03:58:08;;;;;;;10.10;6.33;;;;;;;8.37;75.94;94275.66;5014679;28;20618;-79
2020/12/07 04:00:34;;;;;;;10.33;6.23;;;;;;;8.45;75.32;94285.31;5015859;28;20644;-78
2020/12/07 04:03:02;;;;;;;12.53;6.27;;;;;;;8.50;75.09;94298.38;5015948;28;20185;-78
2020/12/07 04:05:33;;;;;;;9.83;5.97;;;;;;;8.48;75.99;94295.28;5016187;28;20177;-78
2020/12/07 04:07:58;;;;;;;10.10;5.40;;;;;;;8.51;75.43;94283.94;5015667;28;21081;-78
2020/12/07 04:10:24;;;;;;;9.40;6.70;;;;;;;8.35;75.58;94291.13;5016336;28;20669;-78
2020/12/07 04:12:49;;;;;;;9.50;6.20;;;;;;;8.46;76.02;94279.66;5015908;28;20177;-78
2020/12/07 04:15:15;;;;;;;10.33;6.30;;;;;;;8.42;76.11;94280.72;5016434;28;20204;-79
2020/12/07 04:17:40;;;;;;;15.80;6.47;;;;;;;8.48;75.54;94279.31;5015184;28;20268;-79
2020/12/07 04:20:06;;;;;;;11.87;6.57;;;;;;;8.47;75.57;94289.19;5015302;28;20208;-79
2020/12/07 04:22:31;;;;;;;10.00;6.83;;;;;;;8.32;75.75;94286.53;5015466;28;20181;-78
2020/12/07 04:24:57;;;;;;;10.27;6.03;;;;;;;8.45;75.64;94287.97;5014931;28;20636;-77
2020/12/07 04:27:23;;;;;;;9.57;6.50;;;;;;;8.30;76.10;94291.41;5015071;28;20217;-77
2020/12/07 04:29:48;;;;;;;14.00;7.83;;;;;;;8.41;76.26;94282.56;5014915;28;20173;-79
2020/12/07 04:32:14;;;;;;;17.07;7.47;;;;;;;8.51;75.44;94277.84;5015075;28;21234;-79
2020/12/07 04:34:39;;;;;;;10.10;6.43;;;;;;;8.41;75.94;94282.56;5014806;28;20176;-78
2020/12/07 04:37:05;;;;;;;12.37;8.27;;;;;;;8.30;76.61;94262.91;5014697;28;20531;-79
2020/12/07 04:39:31;;;;;;;11.90;7.80;;;;;;;8.41;76.09;94279.91;5013465;28;20177;-77
2020/12/07 04:41:57;;;;;;;13.07;7.80;;;;;;;8.45;75.89;94261.38;5013233;28;20200;-79
2020/12/07 04:44:23;;;;;;;12.33;7.80;;;;;;;8.46;75.95;94268.25;5014573;28;20185;-79
2020/12/07 04:46:49;;;;;;;14.57;8.43;;;;;;;8.37;76.45;94265.78;5014747;28;20590;-78
2020/12/07 04:49:15;;;;;;;13.97;7.70;;;;;;;8.45;75.98;94269.38;4998141;28;20192;-79
2020/12/07 04:51:41;;;;;;;12.50;7.90;;;;;;;8.52;75.70;94272.16;5012900;28;20212;-79
2020/12/07 04:54:06;;;;;;;13.33;8.27;;;;;;;8.38;76.42;94274.53;5014108;28;20601;-80
2020/12/07 04:56:32;;;;;;;15.37;9.27;;;;;;;8.35;76.42;94272.50;5013025;28;20223;-79
2020/12/07 04:58:57;;;;;;;19.50;8.77;;;;;;;8.46;75.92;94266.34;4996947;28;20581;-79
2020/12/07 05:01:23;;;;;;;13.07;8.60;;;;;;;8.39;76.17;94278.72;5014352;28;20201;-79
2020/12/07 05:03:48;;;;;;;14.27;8.80;;;;;;;8.27;76.69;94273.47;5014172;28;20311;-79
2020/12/07 05:06:16;;;;;;;14.23;8.23;;;;;;;8.29;76.50;94269.34;5013714;28;20169;-78
2020/12/07 05:08:42;;;;;;;14.10;8.07;;;;;;;8.29;76.96;94268.56;4996231;28;20231;-78
2020/12/07 05:11:07;;;;;;;18.20;8.70;;;;;;;8.32;76.65;94250.06;5014280;28;20611;-79
2020/12/07 05:13:42;;;;;;;13.63;7.73;;;;;;;8.31;76.47;94253.84;5014306;28;20172;-79
2020/12/07 05:16:08;;;;;;;14.83;8.47;;;;;;;8.35;76.64;94259.22;5013599;28;20175;-78
2020/12/07 05:18:34;;;;;;;15.10;8.67;;;;;;;8.29;76.42;94257.94;5012418;28;20579;-78
2020/12/07 05:21:00;;;;;;;15.47;8.57;;;;;;;8.25;77.27;94255.22;5012446;28;20174;-79
2020/12/07 05:23:26;;;;;;;17.20;9.33;;;;;;;8.35;76.67;94254.66;5013392;28;20694;-79
2020/12/07 05:25:51;;;;;;;15.77;8.93;;;;;;;8.36;76.21;94266.09;5013302;28;20754;-78
2020/12/07 05:28:23;;;;;;;14.00;8.27;;;;;;;8.31;76.24;94261.81;5011903;28;20604;-78
2020/12/07 05:30:50;;;;;;;14.77;8.13;;;;;;;8.41;76.32;94287.13;5012518;28;20223;-77
2020/12/07 05:33:17;;;;;;;14.00;8.40;;;;;;;8.45;76.05;94275.44;5013106;28;21124;-77
2020/12/07 05:35:49;;;;;;;23.80;8.67;;;;;;;8.36;76.46;94263.44;5013185;28;20614;-77
2020/12/07 05:38:14;;;;;;;14.53;8.23;;;;;;;8.12;76.74;94283.78;5012651;28;20623;-77
2020/12/07 05:40:40;;;;;;;15.47;7.77;;;;;;;8.04;77.34;94281.28;5012940;28;20767;-77
2020/12/07 05:43:05;;;;;;;14.17;7.77;;;;;;;7.99;77.28;94269.03;5011454;28;20189;-77
2020/12/07 05:45:31;;;;;;;13.00;7.57;;;;;;;8.11;77.42;94284.13;4995611;28;20173;-77
2020/12/07 05:47:56;;;;;;;14.33;8.20;;;;;;;7.85;77.75;94276.63;5012796;28;20609;-77
2020/12/07 05:50:22;;;;;;;13.00;8.20;;;;;;;7.68;77.84;94267.88;4995288;28;20679;-77
2020/12/07 05:53:14;;;;;;;13.10;7.57;;;;;;;7.71;78.07;94268.31;4995045;28;20263;-78
2020/12/07 05:55:39;;;;;;;14.23;7.60;;;;;;;7.81;77.74;94278.44;5010590;28;20252;-78
2020/12/07 05:58:06;;;;;;;12.60;7.60;;;;;;;7.88;77.56;94266.09;5011421;28;20619;-78
2020/12/07 06:00:32;;;;;;;13.70;7.50;;;;;;;7.98;77.02;94264.81;5012753;28;20735;-78
2020/12/07 06:02:58;;;;;;;10.27;6.63;;;;;;;8.01;76.34;94260.69;5012707;28;20949;-78
2020/12/07 06:05:24;;;;;;;11.83;7.10;;;;;;;7.99;76.42;94266.38;5012589;28;20572;-77
2020/12/07 06:08:00;;;;;;;17.93;7.80;;;;;;;7.98;76.63;94267.47;5012694;28;20319;-78
2020/12/07 06:10:29;;;;;;;14.33;6.97;;;;;;;8.01;76.53;94260.69;5001962;28;20236;-75
2020/12/07 06:12:55;;;;;;;11.50;6.93;;;;;;;7.86;76.86;94238.34;5011406;28;20588;-79
2020/12/07 06:15:21;;;;;;;12.57;7.33;;;;;;;7.79;77.34;94251.44;5010917;28;20679;-79
2020/12/07 06:17:48;;;;;;;14.70;7.47;;;;;;;7.87;77.01;94245.97;5012056;28;20595;-76
2020/12/07 06:20:36;;;;;;;13.10;7.77;;;;;;;7.82;76.62;94243.56;5011675;28;20169;-77
2020/12/07 06:23:01;;;;;;;14.33;7.73;;;;;;;7.89;76.73;94254.34;5012004;28;20560;-78
2020/12/07 06:25:28;;;;;;;13.73;7.53;;;;;;;7.95;76.62;94255.63;5011642;28;20637;-77
2020/12/07 06:27:57;;;;;;;14.50;8.03;;;;;;;7.96;76.45;94249.19;5012199;28;20186;-77
2020/12/07 06:30:22;;;;;;;17.17;8.13;;;;;;;8.02;76.89;94246.28;5011643;28;20602;-77
2020/12/07 06:32:51;;;;;;;14.00;8.07;;;;;;;8.15;76.68;94245.09;5005166;28;20744;-77
2020/12/07 06:35:17;;;;;;;17.27;8.77;;;;;;;8.03;77.00;94242.53;5011586;28;21169;-78
2020/12/07 06:37:47;;;;;;;14.73;8.60;;;;;;;8.03;77.24;94248.63;5006243;28;20666;-77
2020/12/07 06:40:13;;;;;;;13.50;7.63;;;;;;;8.08;77.07;94247.56;5008998;28;20977;-78
2020/12/07 06:42:40;;;;;;;12.10;7.10;;;;;;;8.00;77.22;94249.28;5011994;28;21232;-77
2020/12/07 06:45:09;;;;;;;14.80;8.10;;;;;;;7.98;77.44;94232.94;5011510;28;20584;-77
2020/12/07 06:47:34;;;;;;;13.40;7.37;;;;;;;7.83;77.28;94239.78;5001850;28;21192;-78
2020/12/07 06:50:21;;;;;;;15.00;8.10;;;;;;;7.83;77.52;94239.78;5000086;28;20604;-77
2020/12/07 06:52:48;;;;;;;15.00;8.23;;;;;;;7.89;77.66;94237.63;5011507;28;20173;-77
2020/12/07 06:55:15;;;;;;;14.37;7.87;;;;;;;7.90;77.71;94236.50;5011471;28;20580;-77
2020/12/07 06:57:53;;;;;;;15.73;7.13;;;;;;;7.87;77.83;94234.56;5010263;28;21051;-78
2020/12/07 07:00:25;;;;;;;12.53;7.57;;;;;;;7.84;77.58;94225.38;5011209;28;20588;-77
2020/12/07 07:02:55;;;;;;;13.80;8.00;;;;;;;7.89;77.87;94227.00;5000761;28;21228;-78
2020/12/07 07:05:21;;;;;;;16.90;8.53;;;;;;;8.01;77.08;94228.78;5010317;28;20612;-77
2020/12/07 07:07:47;;;;;;;13.27;8.30;;;;;;;8.02;77.61;94225.00;5012067;28;20634;-78
2020/12/07 07:10:14;;;;;;;15.93;8.43;;;;;;;8.00;77.20;94219.28;5030701;28;21030;-77
2020/12/07 07:12:40;;;;;;;13.40;7.90;;;;;;;8.02;77.28;94219.69;5030631;28;20219;-78
2020/12/07 07:15:06;;;;;;;14.70;8.20;;;;;;;8.02;77.15;94217.03;5030445;28;20598;-78
2020/12/07 07:17:33;;;;;;;18.57;9.60;;;;;;;8.07;77.01;94206.91;5031224;28;21119;-78
2020/12/07 07:19:59;;;;;;;13.93;9.13;;;;;;;7.94;77.47;94206.25;5031151;28;20640;-79
2020/12/07 07:22:25;;;;;;;14.80;7.57;;;;;;;7.89;77.66;94205.72;5031230;28;21168;-79
2020/12/07 07:25:06;;;;;;;13.93;7.93;;;;;;;7.87;77.98;94216.72;5031105;28;20184;-78
2020/12/07 07:30:16;;;;;;;16.20;8.10;;;;;;;7.84;77.32;94209.41;5030733;28;20764;-77
2020/12/07 07:32:43;;;;;;;15.30;7.97;;;;;;;7.77;77.83;94225.19;5031155;28;20590;-78
2020/12/07 07:35:09;;;;;;;14.27;7.10;;;;;;;7.75;77.28;94216.03;5030899;28;20168;-78
2020/12/07 07:37:35;;;;;;;12.67;7.67;;;;;;;7.67;77.54;94213.19;5031104;28;20574;-79
2020/12/07 07:40:03;;;;;;;16.93;8.57;;;;;;;7.84;77.40;94208.66;5012821;28;21224;-78
2020/12/07 07:42:28;;;;;;;13.20;7.57;;;;;;;7.81;76.64;94218.09;5030849;28;20169;-77
2020/12/07 07:44:54;;;;;;;14.50;8.13;;;;;;;7.78;77.35;94204.72;5031096;28;20996;-77
2020/12/07 07:47:31;;;;;;;14.17;8.00;;;;;;;7.83;76.75;94217.75;5030631;28;20607;-77
2020/12/07 07:58:13;;;;;;;13.20;6.87;;;;;;;7.92;76.18;94223.66;5031146;28;20185;-71
2020/12/07 08:17:51;;;;;;;16.57;9.77;;;;;;;8.65;75.47;94224.94;4953843;29;20617;-73
2020/12/07 08:20:18;;;;;;;18.00;8.70;;;;;;;8.43;75.85;94237.78;4953549;29;20743;-70
2020/12/07 08:23:00;;;;;;;15.97;8.90;;;;;;;8.24;76.36;94227.06;4953781;29;21227;-72
2020/12/07 08:25:45;;;;;;;14.97;7.73;;;;;;;7.87;77.64;94231.91;4953441;29;20689;-71
2020/12/07 08:28:24;;;;;;;14.33;8.80;;;;;;;7.84;78.17;94227.25;4937561;29;20606;-70
2020/12/07 08:31:15;;;;;;;14.00;8.67;;;;;;;7.78;78.75;94224.06;4953486;29;20710;-70
2020/12/07 08:34:02;;;;;;;21.00;9.77;;;;;;;7.80;78.66;94221.88;4953259;29;20685;-71
2020/12/07 08:36:29;;;;;;;17.03;9.30;;;;;;;7.35;80.04;94225.69;4953245;29;20629;-70
2020/12/07 08:38:54;;;;;;;19.43;9.90;;;;;;;7.41;80.12;94228.84;4968066;28;20613;-70
2020/12/07 08:41:20;;;;;;;18.53;11.00;;;;;;;7.34;80.28;94234.72;5033675;28;20611;-71
2020/12/07 08:43:48;;;;;;;21.13;10.53;;;;;;;7.47;80.33;94232.81;5033813;28;20231;-72
2020/12/07 08:46:16;;;;;;;22.27;12.40;;;;;;;7.39;80.63;94231.84;5033740;28;20578;-71
2020/12/07 08:48:41;;;;;;;18.73;10.50;;;;;;;7.55;79.79;94228.44;5033540;28;20650;-73
2020/12/07 08:51:07;;;;;;;14.43;8.73;;;;;;;7.86;78.01;94227.69;5031866;28;20741;-74
2020/12/07 08:53:33;;;;;;;15.50;8.57;;;;;;;7.84;77.40;94221.94;5033284;28;20187;-74
2020/12/07 08:55:59;;;;;;;13.13;8.37;;;;;;;7.77;77.61;94235.06;5033208;28;20667;-71
2020/12/07 08:58:24;;;;;;;14.87;7.73;;;;;;;7.74;77.51;94217.91;5033594;28;20245;-72
2020/12/07 09:00:50;;;;;;;16.83;7.40;;;;;;;7.87;76.88;94208.75;5033344;28;20255;-76
2020/12/07 09:03:16;;;;;;;11.47;6.40;;;;;;;7.84;76.76;94208.66;5033522;28;20239;-78
2020/12/07 09:05:41;;;;;;;12.70;7.50;;;;;;;7.81;77.03;94199.50;5033091;28;20200;-74
2020/12/07 09:08:07;;;;;;;10.83;6.53;;;;;;;7.74;76.95;94193.97;5033242;28;20184;-73
2020/12/07 09:10:34;;;;;;;12.23;6.60;;;;;;;7.82;77.05;94190.41;5031820;28;20670;-74
2020/12/07 09:12:59;;;;;;;12.10;7.80;;;;;;;7.90;77.16;94186.00;5032051;28;20182;-77
2020/12/07 09:15:25;;;;;;;13.47;8.07;;;;;;;7.82;77.38;94181.66;5033326;28;20669;-73
2020/12/07 09:17:52;;;;;;;13.27;7.47;;;;;;;7.85;77.19;94172.97;5033170;28;20207;-76
2020/12/07 09:20:17;;;;;;;15.00;8.60;;;;;;;7.81;77.23;94180.88;5033182;28;20639;-73
2020/12/07 09:22:43;;;;;;;15.27;7.03;;;;;;;7.96;76.86;94174.75;5032806;28;20682;-76
2020/12/07 09:25:09;;;;;;;14.73;8.07;;;;;;;7.89;76.69;94177.25;5032924;28;20238;-72
2020/12/07 09:27:34;;;;;;;13.43;7.30;;;;;;;7.92;77.25;94181.13;5031962;28;20359;-73
2020/12/07 09:30:00;;;;;;;14.63;8.17;;;;;;;7.86;76.98;94166.56;5032729;28;20758;-71
2020/12/07 09:32:25;;;;;;;15.17;7.83;;;;;;;7.85;77.18;94163.09;5032570;28;20320;-74
2020/12/07 09:34:51;;;;;;;15.20;8.13;;;;;;;7.81;77.33;94169.47;5032979;28;20211;-74
2020/12/07 09:37:16;;;;;;;18.23;8.93;;;;;;;7.79;77.50;94163.72;5032335;28;20188;-71
2020/12/07 09:39:42;;;;;;;19.00;7.87;;;;;;;7.68;77.63;94150.19;5031230;28;20207;-73
2020/12/07 09:42:08;;;;;;;15.70;8.13;;;;;;;7.70;77.59;94169.22;5032584;28;20179;-70
2020/12/07 09:44:33;;;;;;;15.23;9.10;;;;;;;7.80;77.12;94167.91;5032406;28;20223;-72
2020/12/07 09:46:59;;;;;;;16.73;8.87;;;;;;;7.65;76.91;94149.00;5032719;28;20270;-75
2020/12/07 09:49:24;;;;;;;14.77;8.50;;;;;;;7.64;76.91;94147.47;5032233;28;20191;-77
2020/12/07 09:51:50;;;;;;;19.10;9.47;;;;;;;7.66;77.19;94161.16;5032325;28;20227;-72
2020/12/07 09:54:15;;;;;;;13.53;7.63;;;;;;;7.79;76.73;94153.84;5032069;28;20168;-71
2020/12/07 09:56:41;;;;;;;16.57;8.33;;;;;;;7.73;77.12;94147.25;5032169;28;20617;-72
2020/12/07 09:59:06;;;;;;;14.90;8.67;;;;;;;7.85;76.64;94149.06;5031994;28;20254;-72
2020/12/07 10:01:32;;;;;;;12.23;8.17;;;;;;;7.88;76.03;94143.06;5032323;28;20261;-71
2020/12/07 10:03:58;;;;;;;13.77;8.10;;;;;;;7.93;75.55;94143.56;5031955;28;20188;-71
2020/12/07 10:06:24;;;;;;;18.80;9.53;;;;;;;7.97;75.75;94133.03;5030525;28;20611;-75
2020/12/07 10:08:49;;;;;;;14.83;8.80;;;;;;;7.83;75.76;94125.47;5032225;28;20194;-74
2020/12/07 10:11:15;;;;;;;14.60;8.07;;;;;;;7.92;75.77;94130.63;5032123;28;20322;-73
2020/12/07 10:13:41;;;;;;;13.17;7.67;;;;;;;7.93;75.63;94134.81;5032045;28;20176;-73
2020/12/07 10:16:07;;;;;;;11.57;6.53;;;;;;;7.96;75.03;94123.47;5030197;28;20226;-71
2020/12/07 10:18:32;;;;;;;12.87;7.07;;;;;;;7.77;75.17;94128.75;5031944;28;20678;-75
2020/12/07 10:20:58;;;;;;;11.30;6.80;;;;;;;7.76;74.92;94125.34;5030247;28;20196;-76
2020/12/07 10:23:24;;;;;;;11.73;7.00;;;;;;;7.74;75.65;94110.84;5032680;28;20177;-72
2020/12/07 10:25:52;;;;;;;11.27;7.23;;;;;;;7.82;74.96;94099.25;5031678;28;20306;-78
2020/12/07 10:28:18;;;;;;;15.00;7.13;;;;;;;7.89;75.02;94110.03;5032082;28;20649;-74
2020/12/07 10:30:43;;;;;;;12.20;7.57;;;;;;;7.79;75.33;94100.72;5030326;28;20687;-74
2020/12/07 10:33:09;;;;;;;13.67;7.20;;;;;;;7.83;74.91;94090.16;5031712;28;20579;-72
2020/12/07 10:35:35;;;;;;;12.63;7.20;;;;;;;7.87;75.00;94089.13;5032011;28;20207;-72
2020/12/07 10:38:00;;;;;;;13.00;7.60;;;;;;;7.91;74.81;94079.34;5032286;28;20699;-77
2020/12/07 10:40:26;;;;;;;11.30;6.67;;;;;;;7.78;74.63;94069.94;5031657;28;20614;-74
2020/12/07 10:42:51;;;;;;;11.90;6.90;;;;;;;7.89;74.70;94081.56;5029733;28;20723;-75
2020/12/07 10:45:17;;;;;;;12.10;6.73;;;;;;;7.88;74.98;94098.66;5031593;28;20204;-74
2020/12/07 10:47:42;;;;;;;12.40;6.70;;;;;;;7.95;74.14;94098.03;5031504;28;20252;-73
2020/12/07 10:50:08;;;;;;;13.37;7.30;;;;;;;7.77;75.09;94092.31;5031548;28;20204;-74
2020/12/07 10:52:34;;;;;;;13.90;7.27;;;;;;;7.65;75.29;94089.78;5013447;28;20765;-75
2020/12/07 10:54:59;;;;;;;12.00;7.30;;;;;;;7.73;75.50;94088.81;5012265;28;20228;-79
2020/12/07 10:57:25;;;;;;;12.47;7.17;;;;;;;7.84;75.20;94081.84;5011870;28;20259;-71
2020/12/07 10:59:50;;;;;;;13.27;7.17;;;;;;;7.99;74.79;94082.94;5011312;28;20260;-72
2020/12/07 11:02:16;;;;;;;12.77;6.90;;;;;;;7.95;75.10;94068.78;5009917;28;20220;-72
2020/12/07 11:04:41;;;;;;;13.60;8.00;;;;;;;7.95;74.90;94080.19;5011436;28;20234;-72
2020/12/07 11:07:13;;;;;;;13.33;8.93;;;;;;;7.91;75.09;94075.91;5011727;28;20242;-73
2020/12/07 11:09:39;;;;;;;14.30;8.63;;;;;;;7.89;75.19;94070.94;5011460;28;20169;-75
2020/12/07 11:12:11;;;;;;;16.40;9.20;;;;;;;7.92;75.67;94061.50;5012104;28;20677;-73
2020/12/07 11:14:36;;;;;;;15.37;9.23;;;;;;;8.02;75.28;94066.25;5011362;28;20223;-74
2020/12/07 11:17:02;;;;;;;17.83;9.77;;;;;;;7.99;75.48;94059.00;5011619;28;20592;-72
2020/12/07 11:19:27;;;;;;;15.73;9.20;;;;;;;8.10;75.51;94060.00;5011296;28;20207;-73
2020/12/07 11:21:53;;;;;;;20.23;10.33;;;;;;;8.08;75.62;94069.41;5011548;28;20161;-73
2020/12/07 11:24:18;;;;;;;19.10;9.93;;;;;;;8.08;75.32;94064.91;5011174;28;20173;-71
2020/12/07 11:26:45;;;;;;;17.57;9.83;;;;;;;8.22;74.93;94072.38;5011256;28;20775;-75
2020/12/07 11:29:10;;;;;;;21.13;10.67;;;;;;;8.18;74.76;94060.91;5011312;28;20762;-72
2020/12/07 11:31:36;;;;;;;15.83;8.47;;;;;;;8.04;74.74;94071.25;5011149;28;20654;-77
2020/12/07 11:34:02;;;;;;;23.27;9.50;;;;;;;8.06;75.36;94064.47;5011338;28;20223;-75
2020/12/07 11:36:27;;;;;;;20.90;10.13;;;;;;;8.07;74.59;94054.59;5009900;28;20227;-76
2020/12/07 11:44:12;;;;;;;15.47;9.03;;;;;;;8.04;75.66;94048.09;5011422;28;20645;-76
2020/12/07 11:46:44;;;;;;;18.43;9.30;;;;;;;7.97;75.73;94039.97;5011225;28;20630;-76
2020/12/07 11:49:10;;;;;;;18.73;9.67;;;;;;;8.03;76.01;94043.91;5011258;28;20627;-76
2020/12/07 11:51:38;;;;;;;17.80;9.57;;;;;;;8.00;75.92;94033.19;5013875;28;20639;-76
2020/12/07 11:54:03;;;;;;;20.40;11.60;;;;;;;8.11;75.30;94032.28;5014893;28;20180;-77
2020/12/07 11:56:30;;;;;;;20.60;10.23;;;;;;;8.01;75.47;94024.84;5014635;28;21192;-77
2020/12/07 11:58:55;;;;;;;18.50;9.90;;;;;;;8.14;75.81;94036.16;5015037;28;20177;-76
2020/12/07 12:01:21;;;;;;;14.67;8.83;;;;;;;8.03;75.48;94038.59;5014737;28;20660;-76
2020/12/07 12:03:46;;;;;;;13.67;8.13;;;;;;;8.00;75.69;94035.84;5014840;28;20219;-76
2020/12/07 12:06:24;;;;;;;17.07;9.57;;;;;;;7.96;75.71;94025.13;5014518;28;20184;-76